sensor_id;sensor_type;location;lat;lon;timestamp;temperature;humidity
31677;DHT22;18385;51.572;6.578;2023-12-20T00:01:22;11.00;76.00
31677;DHT22;18385;51.572;6.578;2023-12-20T00:03:48;10.90;76.30
31677;DHT22;18385;51.572;6.578;2023-12-20T00:06:14;10.90;76.30
31677;DHT22;18385;51.572;6.578;2023-12-20T00:08:39;10.90;76.60
31677;DHT22;18385;51.572;6.578;2023-12-20T00:11:05;10.90;76.60
31677;DHT22;18385;51.572;6.578;2023-12-20T00:13:31;11.00;76.60
31677;DHT22;18385;51.572;6.578;2023-12-20T00:15:56;11.00;76.20
31677;DHT22;18385;51.572;6.578;2023-12-20T00:18:22;11.00;76.20
31677;DHT22;18385;51.572;6.578;2023-12-20T00:20:48;10.90;76.20
31677;DHT22;18385;51.572;6.578;2023-12-20T00:23:14;11.00;76.30
31677;DHT22;18385;51.572;6.578;2023-12-20T00:25:39;11.00;76.40
31677;DHT22;18385;51.572;6.578;2023-12-20T00:28:06;11.00;76.30
31677;DHT22;18385;51.572;6.578;2023-12-20T00:30:31;11.10;76.20
31677;DHT22;18385;51.572;6.578;2023-12-20T00:32:57;11.10;76.00
31677;DHT22;18385;51.572;6.578;2023-12-20T00:35:23;11.10;76.00
31677;DHT22;18385;51.572;6.578;2023-12-20T00:37:49;11.20;76.30
31677;DHT22;18385;51.572;6.578;2023-12-20T00:40:15;11.20;76.20
31677;DHT22;18385;51.572;6.578;2023-12-20T00:42:41;11.20;76.10
31677;DHT22;18385;51.572;6.578;2023-12-20T00:45:07;11.30;76.10
31677;DHT22;18385;51.572;6.578;2023-12-20T00:47:33;11.20;75.90
31677;DHT22;18385;51.572;6.578;2023-12-20T00:49:58;11.30;76.00
31677;DHT22;18385;51.572;6.578;2023-12-20T00:52:24;11.30;75.90
31677;DHT22;18385;51.572;6.578;2023-12-20T00:54:50;11.30;75.90
31677;DHT22;18385;51.572;6.578;2023-12-20T00:57:16;11.30;75.60
31677;DHT22;18385;51.572;6.578;2023-12-20T00:59:42;11.30;75.60
31677;DHT22;18385;51.572;6.578;2023-12-20T01:02:07;11.20;75.50
31677;DHT22;18385;51.572;6.578;2023-12-20T01:04:34;11.10;75.30
31677;DHT22;18385;51.572;6.578;2023-12-20T01:07:00;10.90;75.40
31677;DHT22;18385;51.572;6.578;2023-12-20T01:09:25;10.80;75.60
31677;DHT22;18385;51.572;6.578;2023-12-20T01:11:54;10.70;75.80
31677;DHT22;18385;51.572;6.578;2023-12-20T01:14:20;10.60;75.90
31677;DHT22;18385;51.572;6.578;2023-12-20T01:16:46;10.60;75.90
31677;DHT22;18385;51.572;6.578;2023-12-20T01:19:12;10.50;76.20
31677;DHT22;18385;51.572;6.578;2023-12-20T01:21:40;10.50;76.30
31677;DHT22;18385;51.572;6.578;2023-12-20T01:24:06;10.50;76.10
31677;DHT22;18385;51.572;6.578;2023-12-20T01:26:31;10.40;76.00
31677;DHT22;18385;51.572;6.578;2023-12-20T01:28:57;10.40;76.00
31677;DHT22;18385;51.572;6.578;2023-12-20T01:31:23;10.40;76.40
31677;DHT22;18385;51.572;6.578;2023-12-20T01:33:49;10.40;76.40
31677;DHT22;18385;51.572;6.578;2023-12-20T01:36:14;10.30;76.10
31677;DHT22;18385;51.572;6.578;2023-12-20T01:38:40;10.30;76.10
31677;DHT22;18385;51.572;6.578;2023-12-20T01:41:06;10.20;76.00
31677;DHT22;18385;51.572;6.578;2023-12-20T01:43:32;10.10;76.00
31677;DHT22;18385;51.572;6.578;2023-12-20T01:45:57;10.10;76.40
31677;DHT22;18385;51.572;6.578;2023-12-20T01:48:25;10.10;76.30
31677;DHT22;18385;51.572;6.578;2023-12-20T01:50:51;10.00;76.40
31677;DHT22;18385;51.572;6.578;2023-12-20T01:53:19;10.00;76.50
31677;DHT22;18385;51.572;6.578;2023-12-20T01:55:45;10.00;76.50
31677;DHT22;18385;51.572;6.578;2023-12-20T01:58:13;9.90;76.20
31677;DHT22;18385;51.572;6.578;2023-12-20T02:00:40;9.90;76.20
31677;DHT22;18385;51.572;6.578;2023-12-20T02:03:06;9.90;76.30
31677;DHT22;18385;51.572;6.578;2023-12-20T02:05:33;9.80;76.40
31677;DHT22;18385;51.572;6.578;2023-12-20T02:07:59;9.80;76.50
31677;DHT22;18385;51.572;6.578;2023-12-20T02:10:25;9.80;76.30
31677;DHT22;18385;51.572;6.578;2023-12-20T02:12:51;9.80;76.40
31677;DHT22;18385;51.572;6.578;2023-12-20T02:15:17;9.80;76.50
31677;DHT22;18385;51.572;6.578;2023-12-20T02:17:43;9.70;76.30
31677;DHT22;18385;51.572;6.578;2023-12-20T02:20:09;9.70;76.30
31677;DHT22;18385;51.572;6.578;2023-12-20T02:22:35;9.70;76.50
31677;DHT22;18385;51.572;6.578;2023-12-20T02:25:01;9.70;76.50
31677;DHT22;18385;51.572;6.578;2023-12-20T02:27:27;9.70;76.50
31677;DHT22;18385;51.572;6.578;2023-12-20T02:29:53;9.60;76.40
31677;DHT22;18385;51.572;6.578;2023-12-20T02:32:19;9.50;76.30
31677;DHT22;18385;51.572;6.578;2023-12-20T02:34:47;9.60;76.50
31677;DHT22;18385;51.572;6.578;2023-12-20T02:37:13;9.50;76.40
31677;DHT22;18385;51.572;6.578;2023-12-20T02:39:39;9.50;76.70
31677;DHT22;18385;51.572;6.578;2023-12-20T02:42:04;9.60;76.80
31677;DHT22;18385;51.572;6.578;2023-12-20T02:44:33;9.70;76.90
31677;DHT22;18385;51.572;6.578;2023-12-20T02:46:59;9.80;76.90
31677;DHT22;18385;51.572;6.578;2023-12-20T02:49:25;9.90;76.60
31677;DHT22;18385;51.572;6.578;2023-12-20T02:51:50;9.90;76.20
31677;DHT22;18385;51.572;6.578;2023-12-20T02:54:16;9.90;75.90
31677;DHT22;18385;51.572;6.578;2023-12-20T02:56:42;9.80;76.10
31677;DHT22;18385;51.572;6.578;2023-12-20T02:59:07;9.90;76.40
31677;DHT22;18385;51.572;6.578;2023-12-20T03:01:34;9.90;76.10
31677;DHT22;18385;51.572;6.578;2023-12-20T03:04:01;9.80;75.90
31677;DHT22;18385;51.572;6.578;2023-12-20T03:06:26;9.70;75.80
31677;DHT22;18385;51.572;6.578;2023-12-20T03:08:52;9.60;76.00
31677;DHT22;18385;51.572;6.578;2023-12-20T03:11:18;9.50;76.00
31677;DHT22;18385;51.572;6.578;2023-12-20T03:13:44;9.50;76.20
31677;DHT22;18385;51.572;6.578;2023-12-20T03:16:10;9.50;76.50
31677;DHT22;18385;51.572;6.578;2023-12-20T03:18:36;9.60;76.60
31677;DHT22;18385;51.572;6.578;2023-12-20T03:21:02;9.60;76.40
31677;DHT22;18385;51.572;6.578;2023-12-20T03:23:28;9.70;76.30
31677;DHT22;18385;51.572;6.578;2023-12-20T03:25:56;9.60;76.10
31677;DHT22;18385;51.572;6.578;2023-12-20T03:28:22;9.50;76.10
31677;DHT22;18385;51.572;6.578;2023-12-20T03:30:48;9.50;76.10
31677;DHT22;18385;51.572;6.578;2023-12-20T03:33:14;9.40;76.30
31677;DHT22;18385;51.572;6.578;2023-12-20T03:35:40;9.40;76.10
31677;DHT22;18385;51.572;6.578;2023-12-20T03:38:05;9.30;76.20
31677;DHT22;18385;51.572;6.578;2023-12-20T03:40:31;9.30;76.20
31677;DHT22;18385;51.572;6.578;2023-12-20T03:42:57;9.30;76.10
31677;DHT22;18385;51.572;6.578;2023-12-20T03:45:22;9.20;76.10
31677;DHT22;18385;51.572;6.578;2023-12-20T03:47:48;9.20;76.20
31677;DHT22;18385;51.572;6.578;2023-12-20T03:50:14;9.10;76.20
31677;DHT22;18385;51.572;6.578;2023-12-20T03:52:39;9.10;76.20
31677;DHT22;18385;51.572;6.578;2023-12-20T03:55:05;9.10;76.40
31677;DHT22;18385;51.572;6.578;2023-12-20T03:57:31;9.00;76.40
31677;DHT22;18385;51.572;6.578;2023-12-20T03:59:57;9.00;76.30
31677;DHT22;18385;51.572;6.578;2023-12-20T04:02:22;9.00;76.50
31677;DHT22;18385;51.572;6.578;2023-12-20T04:04:48;9.10;76.50
31677;DHT22;18385;51.572;6.578;2023-12-20T04:07:14;9.10;76.50
31677;DHT22;18385;51.572;6.578;2023-12-20T04:09:41;9.10;76.50
31677;DHT22;18385;51.572;6.578;2023-12-20T04:12:07;9.20;76.60
31677;DHT22;18385;51.572;6.578;2023-12-20T04:14:32;9.30;76.20
31677;DHT22;18385;51.572;6.578;2023-12-20T04:16:58;9.20;76.10
31677;DHT22;18385;51.572;6.578;2023-12-20T04:19:24;9.20;76.30
31677;DHT22;18385;51.572;6.578;2023-12-20T04:21:49;9.20;76.30
31677;DHT22;18385;51.572;6.578;2023-12-20T04:24:15;9.20;76.40
31677;DHT22;18385;51.572;6.578;2023-12-20T04:26:41;9.30;76.50
31677;DHT22;18385;51.572;6.578;2023-12-20T04:29:07;9.40;76.60
31677;DHT22;18385;51.572;6.578;2023-12-20T04:31:32;9.50;76.30
31677;DHT22;18385;51.572;6.578;2023-12-20T04:33:58;9.50;76.00
31677;DHT22;18385;51.572;6.578;2023-12-20T04:36:23;9.50;76.00
31677;DHT22;18385;51.572;6.578;2023-12-20T04:38:53;9.50;75.90
31677;DHT22;18385;51.572;6.578;2023-12-20T04:41:19;9.50;75.70
31677;DHT22;18385;51.572;6.578;2023-12-20T04:43:44;9.30;75.60
31677;DHT22;18385;51.572;6.578;2023-12-20T04:46:10;9.30;75.90
31677;DHT22;18385;51.572;6.578;2023-12-20T04:48:36;9.30;76.20
31677;DHT22;18385;51.572;6.578;2023-12-20T04:51:02;9.40;76.30
31677;DHT22;18385;51.572;6.578;2023-12-20T04:53:27;9.50;76.30
31677;DHT22;18385;51.572;6.578;2023-12-20T04:55:53;9.50;76.20
31677;DHT22;18385;51.572;6.578;2023-12-20T04:58:19;9.60;76.10
31677;DHT22;18385;51.572;6.578;2023-12-20T05:00:45;9.60;75.90
31677;DHT22;18385;51.572;6.578;2023-12-20T05:03:10;9.60;75.90
31677;DHT22;18385;51.572;6.578;2023-12-20T05:05:36;9.60;75.90
31677;DHT22;18385;51.572;6.578;2023-12-20T05:08:02;9.70;75.80
31677;DHT22;18385;51.572;6.578;2023-12-20T05:10:27;9.70;75.80
31677;DHT22;18385;51.572;6.578;2023-12-20T05:12:53;9.70;75.70
31677;DHT22;18385;51.572;6.578;2023-12-20T05:15:19;9.60;75.70
31677;DHT22;18385;51.572;6.578;2023-12-20T05:17:44;9.70;75.90
31677;DHT22;18385;51.572;6.578;2023-12-20T05:20:10;9.70;75.70
31677;DHT22;18385;51.572;6.578;2023-12-20T05:22:36;9.70;75.60
31677;DHT22;18385;51.572;6.578;2023-12-20T05:25:02;9.60;75.60
31677;DHT22;18385;51.572;6.578;2023-12-20T05:27:27;9.60;75.50
31677;DHT22;18385;51.572;6.578;2023-12-20T05:29:53;9.50;76.40
31677;DHT22;18385;51.572;6.578;2023-12-20T05:32:23;9.60;75.90
31677;DHT22;18385;51.572;6.578;2023-12-20T05:34:48;9.60;75.90
31677;DHT22;18385;51.572;6.578;2023-12-20T05:37:14;9.70;75.80
31677;DHT22;18385;51.572;6.578;2023-12-20T05:39:40;9.70;75.60
31677;DHT22;18385;51.572;6.578;2023-12-20T05:42:05;9.70;75.70
31677;DHT22;18385;51.572;6.578;2023-12-20T05:44:31;9.80;76.50
31677;DHT22;18385;51.572;6.578;2023-12-20T05:46:57;9.80;75.60
31677;DHT22;18385;51.572;6.578;2023-12-20T05:49:22;9.80;75.60
31677;DHT22;18385;51.572;6.578;2023-12-20T05:51:48;9.90;75.60
31677;DHT22;18385;51.572;6.578;2023-12-20T05:54:16;9.90;75.50
31677;DHT22;18385;51.572;6.578;2023-12-20T05:56:42;9.90;75.50
31677;DHT22;18385;51.572;6.578;2023-12-20T05:59:07;9.90;75.40
31677;DHT22;18385;51.572;6.578;2023-12-20T06:01:33;9.90;75.40
31677;DHT22;18385;51.572;6.578;2023-12-20T06:03:59;9.90;75.50
31677;DHT22;18385;51.572;6.578;2023-12-20T06:06:24;9.90;75.30
31677;DHT22;18385;51.572;6.578;2023-12-20T06:08:50;9.90;75.40
31677;DHT22;18385;51.572;6.578;2023-12-20T06:11:16;9.90;75.50
31677;DHT22;18385;51.572;6.578;2023-12-20T06:13:42;10.00;75.60
31677;DHT22;18385;51.572;6.578;2023-12-20T06:16:07;10.00;75.60
31677;DHT22;18385;51.572;6.578;2023-12-20T06:18:33;10.00;75.30
31677;DHT22;18385;51.572;6.578;2023-12-20T06:20:59;10.00;75.30
31677;DHT22;18385;51.572;6.578;2023-12-20T06:23:25;10.00;75.30
31677;DHT22;18385;51.572;6.578;2023-12-20T06:25:50;10.10;75.30
31677;DHT22;18385;51.572;6.578;2023-12-20T06:28:16;10.10;76.10
31677;DHT22;18385;51.572;6.578;2023-12-20T06:30:41;10.10;75.30
31677;DHT22;18385;51.572;6.578;2023-12-20T06:33:07;10.10;75.30
31677;DHT22;18385;51.572;6.578;2023-12-20T06:35:35;10.20;75.20
31677;DHT22;18385;51.572;6.578;2023-12-20T06:38:00;10.20;75.10
31677;DHT22;18385;51.572;6.578;2023-12-20T06:40:27;10.20;75.20
31677;DHT22;18385;51.572;6.578;2023-12-20T06:42:53;10.30;75.10
31677;DHT22;18385;51.572;6.578;2023-12-20T06:45:19;10.30;75.00
31677;DHT22;18385;51.572;6.578;2023-12-20T06:47:44;10.30;75.00
31677;DHT22;18385;51.572;6.578;2023-12-20T06:50:10;10.30;75.00
31677;DHT22;18385;51.572;6.578;2023-12-20T06:52:36;10.30;75.00
31677;DHT22;18385;51.572;6.578;2023-12-20T06:55:01;10.40;75.00
31677;DHT22;18385;51.572;6.578;2023-12-20T06:57:27;10.40;75.00
31677;DHT22;18385;51.572;6.578;2023-12-20T06:59:53;10.40;75.80
31677;DHT22;18385;51.572;6.578;2023-12-20T07:02:19;10.40;75.00
31677;DHT22;18385;51.572;6.578;2023-12-20T07:04:44;10.40;74.90
31677;DHT22;18385;51.572;6.578;2023-12-20T07:07:10;10.50;74.90
31677;DHT22;18385;51.572;6.578;2023-12-20T07:09:35;10.50;74.70
31677;DHT22;18385;51.572;6.578;2023-12-20T07:12:01;10.50;74.70
31677;DHT22;18385;51.572;6.578;2023-12-20T07:14:27;10.50;74.80
31677;DHT22;18385;51.572;6.578;2023-12-20T07:16:55;10.50;74.80
31677;DHT22;18385;51.572;6.578;2023-12-20T07:19:20;10.50;74.80
31677;DHT22;18385;51.572;6.578;2023-12-20T07:21:46;10.60;74.80
31677;DHT22;18385;51.572;6.578;2023-12-20T07:24:11;10.60;74.70
31677;DHT22;18385;51.572;6.578;2023-12-20T07:26:37;10.60;74.60
31677;DHT22;18385;51.572;6.578;2023-12-20T07:29:04;10.60;74.50
31677;DHT22;18385;51.572;6.578;2023-12-20T07:31:30;10.60;74.50
31677;DHT22;18385;51.572;6.578;2023-12-20T07:33:56;10.60;74.60
31677;DHT22;18385;51.572;6.578;2023-12-20T07:36:21;10.60;74.60
31677;DHT22;18385;51.572;6.578;2023-12-20T07:38:47;10.60;74.50
31677;DHT22;18385;51.572;6.578;2023-12-20T07:41:13;10.60;74.50
31677;DHT22;18385;51.572;6.578;2023-12-20T07:43:41;10.70;74.50
31677;DHT22;18385;51.572;6.578;2023-12-20T07:46:08;10.70;74.60
31677;DHT22;18385;51.572;6.578;2023-12-20T07:48:37;10.70;74.40
31677;DHT22;18385;51.572;6.578;2023-12-20T07:51:06;10.70;74.40
31677;DHT22;18385;51.572;6.578;2023-12-20T07:53:34;10.70;74.30
31677;DHT22;18385;51.572;6.578;2023-12-20T07:56:00;10.70;74.30
31677;DHT22;18385;51.572;6.578;2023-12-20T07:58:26;10.70;74.10
31677;DHT22;18385;51.572;6.578;2023-12-20T08:00:51;10.70;74.30
31677;DHT22;18385;51.572;6.578;2023-12-20T08:03:17;10.70;74.20
31677;DHT22;18385;51.572;6.578;2023-12-20T08:05:42;10.80;74.20
31677;DHT22;18385;51.572;6.578;2023-12-20T08:08:08;10.80;74.30
31677;DHT22;18385;51.572;6.578;2023-12-20T08:10:34;10.80;74.30
31677;DHT22;18385;51.572;6.578;2023-12-20T08:12:59;10.80;74.20
31677;DHT22;18385;51.572;6.578;2023-12-20T08:15:25;10.80;74.20
31677;DHT22;18385;51.572;6.578;2023-12-20T08:17:51;10.80;74.10
31677;DHT22;18385;51.572;6.578;2023-12-20T08:20:17;10.80;74.10
31677;DHT22;18385;51.572;6.578;2023-12-20T08:22:43;10.80;74.10
31677;DHT22;18385;51.572;6.578;2023-12-20T08:25:08;10.80;74.10
31677;DHT22;18385;51.572;6.578;2023-12-20T08:27:39;10.90;74.00
31677;DHT22;18385;51.572;6.578;2023-12-20T08:30:05;10.80;73.90
31677;DHT22;18385;51.572;6.578;2023-12-20T08:32:31;10.80;73.90
31677;DHT22;18385;51.572;6.578;2023-12-20T08:34:57;10.80;73.90
31677;DHT22;18385;51.572;6.578;2023-12-20T08:37:23;10.80;74.70
31677;DHT22;18385;51.572;6.578;2023-12-20T08:39:49;10.90;73.90
31677;DHT22;18385;51.572;6.578;2023-12-20T08:42:15;10.90;73.90
31677;DHT22;18385;51.572;6.578;2023-12-20T08:44:40;10.90;73.70
31677;DHT22;18385;51.572;6.578;2023-12-20T08:47:06;10.80;73.70
31677;DHT22;18385;51.572;6.578;2023-12-20T08:49:32;10.80;73.80
31677;DHT22;18385;51.572;6.578;2023-12-20T08:51:58;10.80;73.80
31677;DHT22;18385;51.572;6.578;2023-12-20T08:54:24;10.80;73.80
31677;DHT22;18385;51.572;6.578;2023-12-20T08:56:50;10.90;73.80
31677;DHT22;18385;51.572;6.578;2023-12-20T08:59:15;10.90;73.70
31677;DHT22;18385;51.572;6.578;2023-12-20T09:01:41;10.90;73.60
31677;DHT22;18385;51.572;6.578;2023-12-20T09:04:07;10.80;73.60
31677;DHT22;18385;51.572;6.578;2023-12-20T09:06:33;10.90;73.60
31677;DHT22;18385;51.572;6.578;2023-12-20T09:08:58;10.90;73.40
31677;DHT22;18385;51.572;6.578;2023-12-20T09:11:24;10.90;73.60
31677;DHT22;18385;51.572;6.578;2023-12-20T09:13:49;10.90;73.40
31677;DHT22;18385;51.572;6.578;2023-12-20T09:16:16;10.90;73.30
31677;DHT22;18385;51.572;6.578;2023-12-20T09:18:42;10.80;73.40
31677;DHT22;18385;51.572;6.578;2023-12-20T09:21:08;10.90;73.50
31677;DHT22;18385;51.572;6.578;2023-12-20T09:23:33;10.90;73.30
31677;DHT22;18385;51.572;6.578;2023-12-20T09:25:59;10.90;74.20
31677;DHT22;18385;51.572;6.578;2023-12-20T09:28:25;10.90;73.40
31677;DHT22;18385;51.572;6.578;2023-12-20T09:30:50;10.90;73.40
31677;DHT22;18385;51.572;6.578;2023-12-20T09:33:16;11.00;73.50
31677;DHT22;18385;51.572;6.578;2023-12-20T09:35:42;11.10;73.40
31677;DHT22;18385;51.572;6.578;2023-12-20T09:38:08;11.00;73.10
31677;DHT22;18385;51.572;6.578;2023-12-20T09:40:35;11.00;73.00
31677;DHT22;18385;51.572;6.578;2023-12-20T09:43:10;11.10;73.10
31677;DHT22;18385;51.572;6.578;2023-12-20T09:45:36;11.10;73.10
31677;DHT22;18385;51.572;6.578;2023-12-20T09:48:03;11.10;73.10
31677;DHT22;18385;51.572;6.578;2023-12-20T09:50:30;11.10;73.10
31677;DHT22;18385;51.572;6.578;2023-12-20T09:52:58;11.10;73.10
31677;DHT22;18385;51.572;6.578;2023-12-20T09:55:26;11.20;73.20
31677;DHT22;18385;51.572;6.578;2023-12-20T09:57:53;11.30;73.20
31677;DHT22;18385;51.572;6.578;2023-12-20T10:00:19;11.40;72.90
31677;DHT22;18385;51.572;6.578;2023-12-20T10:02:58;11.50;72.90
31677;DHT22;18385;51.572;6.578;2023-12-20T10:05:29;11.60;73.00
31677;DHT22;18385;51.572;6.578;2023-12-20T10:07:55;11.60;72.50
31677;DHT22;18385;51.572;6.578;2023-12-20T10:10:21;11.50;72.00
31677;DHT22;18385;51.572;6.578;2023-12-20T10:13:03;11.50;72.10
31677;DHT22;18385;51.572;6.578;2023-12-20T10:15:29;11.50;72.40
31677;DHT22;18385;51.572;6.578;2023-12-20T10:17:56;11.50;73.10
31677;DHT22;18385;51.572;6.578;2023-12-20T10:20:22;11.50;72.30
31677;DHT22;18385;51.572;6.578;2023-12-20T10:22:48;11.50;72.40
31677;DHT22;18385;51.572;6.578;2023-12-20T10:25:14;11.60;72.60
31677;DHT22;18385;51.572;6.578;2023-12-20T10:27:40;11.70;72.50
31677;DHT22;18385;51.572;6.578;2023-12-20T10:30:06;11.60;71.90
31677;DHT22;18385;51.572;6.578;2023-12-20T10:32:31;11.50;71.60
31677;DHT22;18385;51.572;6.578;2023-12-20T10:34:58;11.30;71.70
31677;DHT22;18385;51.572;6.578;2023-12-20T10:37:24;11.30;72.10
31677;DHT22;18385;51.572;6.578;2023-12-20T10:39:52;11.50;72.40
31677;DHT22;18385;51.572;6.578;2023-12-20T10:42:22;11.60;72.00
31677;DHT22;18385;51.572;6.578;2023-12-20T10:44:49;11.60;72.00
31677;DHT22;18385;51.572;6.578;2023-12-20T10:47:16;11.50;71.70
31677;DHT22;18385;51.572;6.578;2023-12-20T10:49:43;11.50;72.00
31677;DHT22;18385;51.572;6.578;2023-12-20T10:52:11;11.60;72.10
31677;DHT22;18385;51.572;6.578;2023-12-20T10:54:39;11.50;71.80
31677;DHT22;18385;51.572;6.578;2023-12-20T10:57:06;11.50;71.90
31677;DHT22;18385;51.572;6.578;2023-12-20T10:59:37;11.40;71.80
31677;DHT22;18385;51.572;6.578;2023-12-20T11:02:06;11.50;72.10
31677;DHT22;18385;51.572;6.578;2023-12-20T11:04:40;11.40;71.90
31677;DHT22;18385;51.572;6.578;2023-12-20T11:07:29;11.40;72.10
31677;DHT22;18385;51.572;6.578;2023-12-20T11:10:00;11.40;72.10
31677;DHT22;18385;51.572;6.578;2023-12-20T11:12:41;11.40;71.90
31677;DHT22;18385;51.572;6.578;2023-12-20T11:15:10;11.40;72.10
31677;DHT22;18385;51.572;6.578;2023-12-20T11:17:39;11.50;72.10
31677;DHT22;18385;51.572;6.578;2023-12-20T11:20:07;11.60;72.30
31677;DHT22;18385;51.572;6.578;2023-12-20T11:22:36;11.60;72.00
31677;DHT22;18385;51.572;6.578;2023-12-20T11:25:11;11.70;72.00
31677;DHT22;18385;51.572;6.578;2023-12-20T11:27:41;11.70;72.00
31677;DHT22;18385;51.572;6.578;2023-12-20T11:30:08;11.70;71.80
31677;DHT22;18385;51.572;6.578;2023-12-20T11:32:36;11.70;71.80
31677;DHT22;18385;51.572;6.578;2023-12-20T11:35:17;11.70;71.50
31677;DHT22;18385;51.572;6.578;2023-12-20T11:37:44;11.50;71.30
31677;DHT22;18385;51.572;6.578;2023-12-20T11:40:14;11.30;71.50
31677;DHT22;18385;51.572;6.578;2023-12-20T11:42:41;11.20;72.10
31677;DHT22;18385;51.572;6.578;2023-12-20T11:45:13;11.10;72.50
31677;DHT22;18385;51.572;6.578;2023-12-20T11:47:42;11.10;72.70
31677;DHT22;18385;51.572;6.578;2023-12-20T11:50:08;11.10;72.80
31677;DHT22;18385;51.572;6.578;2023-12-20T11:52:35;11.10;72.70
31677;DHT22;18385;51.572;6.578;2023-12-20T11:55:00;11.10;72.80
31677;DHT22;18385;51.572;6.578;2023-12-20T11:57:26;11.20;73.20
31677;DHT22;18385;51.572;6.578;2023-12-20T11:59:52;11.30;73.20
31677;DHT22;18385;51.572;6.578;2023-12-20T12:02:17;11.50;73.00
31677;DHT22;18385;51.572;6.578;2023-12-20T12:04:43;11.50;72.70
31677;DHT22;18385;51.572;6.578;2023-12-20T12:07:09;11.60;72.80
31677;DHT22;18385;51.572;6.578;2023-12-20T12:09:35;11.70;72.60
31677;DHT22;18385;51.572;6.578;2023-12-20T12:12:01;11.70;72.40
31677;DHT22;18385;51.572;6.578;2023-12-20T12:14:27;11.70;72.60
31677;DHT22;18385;51.572;6.578;2023-12-20T12:16:53;11.80;72.50
31677;DHT22;18385;51.572;6.578;2023-12-20T12:19:22;11.80;72.40
31677;DHT22;18385;51.572;6.578;2023-12-20T12:22:11;11.90;72.40
31677;DHT22;18385;51.572;6.578;2023-12-20T12:24:46;11.90;72.30
31677;DHT22;18385;51.572;6.578;2023-12-20T12:27:13;11.90;72.20
31677;DHT22;18385;51.572;6.578;2023-12-20T12:29:39;11.90;72.00
31677;DHT22;18385;51.572;6.578;2023-12-20T12:32:06;11.90;72.10
31677;DHT22;18385;51.572;6.578;2023-12-20T12:34:33;11.90;72.20
31677;DHT22;18385;51.572;6.578;2023-12-20T12:37:00;11.90;72.10
31677;DHT22;18385;51.572;6.578;2023-12-20T12:39:26;11.90;72.00
31677;DHT22;18385;51.572;6.578;2023-12-20T12:41:52;11.90;72.00
31677;DHT22;18385;51.572;6.578;2023-12-20T12:44:18;11.90;72.00
31677;DHT22;18385;51.572;6.578;2023-12-20T12:46:45;11.90;71.90
31677;DHT22;18385;51.572;6.578;2023-12-20T12:49:11;11.90;71.90
31677;DHT22;18385;51.572;6.578;2023-12-20T12:51:36;11.90;72.00
31677;DHT22;18385;51.572;6.578;2023-12-20T12:54:02;11.90;71.90
31677;DHT22;18385;51.572;6.578;2023-12-20T12:56:29;11.90;71.70
31677;DHT22;18385;51.572;6.578;2023-12-20T12:58:55;11.90;71.80
31677;DHT22;18385;51.572;6.578;2023-12-20T13:01:21;11.90;71.80
31677;DHT22;18385;51.572;6.578;2023-12-20T13:03:46;11.90;71.70
31677;DHT22;18385;51.572;6.578;2023-12-20T13:06:12;11.90;71.80
31677;DHT22;18385;51.572;6.578;2023-12-20T13:08:38;11.90;71.80
31677;DHT22;18385;51.572;6.578;2023-12-20T13:11:04;11.90;71.70
31677;DHT22;18385;51.572;6.578;2023-12-20T13:13:30;11.90;71.60
31677;DHT22;18385;51.572;6.578;2023-12-20T13:15:56;11.80;71.50
31677;DHT22;18385;51.572;6.578;2023-12-20T13:18:23;11.80;71.50
31677;DHT22;18385;51.572;6.578;2023-12-20T13:20:49;11.70;71.50
31677;DHT22;18385;51.572;6.578;2023-12-20T13:23:15;11.70;71.70
31677;DHT22;18385;51.572;6.578;2023-12-20T13:25:41;11.60;71.60
31677;DHT22;18385;51.572;6.578;2023-12-20T13:28:07;11.60;71.80
31677;DHT22;18385;51.572;6.578;2023-12-20T13:30:34;11.60;71.80
31677;DHT22;18385;51.572;6.578;2023-12-20T13:32:59;11.70;71.90
31677;DHT22;18385;51.572;6.578;2023-12-20T13:35:25;11.70;71.80
31677;DHT22;18385;51.572;6.578;2023-12-20T13:37:51;11.70;71.70
31677;DHT22;18385;51.572;6.578;2023-12-20T13:40:17;11.80;71.60
31677;DHT22;18385;51.572;6.578;2023-12-20T13:42:43;11.80;71.60
31677;DHT22;18385;51.572;6.578;2023-12-20T13:45:09;11.80;71.60
31677;DHT22;18385;51.572;6.578;2023-12-20T13:47:35;11.70;71.50
31677;DHT22;18385;51.572;6.578;2023-12-20T13:50:01;11.80;71.60
31677;DHT22;18385;51.572;6.578;2023-12-20T13:52:27;11.70;71.60
31677;DHT22;18385;51.572;6.578;2023-12-20T13:54:52;11.70;71.50
31677;DHT22;18385;51.572;6.578;2023-12-20T13:57:18;11.70;71.40
31677;DHT22;18385;51.572;6.578;2023-12-20T13:59:44;11.60;71.40
31677;DHT22;18385;51.572;6.578;2023-12-20T14:02:10;11.50;71.50
31677;DHT22;18385;51.572;6.578;2023-12-20T14:04:36;11.40;71.60
31677;DHT22;18385;51.572;6.578;2023-12-20T14:07:01;11.40;71.70
31677;DHT22;18385;51.572;6.578;2023-12-20T14:09:27;11.40;71.90
31677;DHT22;18385;51.572;6.578;2023-12-20T14:11:53;11.40;71.90
31677;DHT22;18385;51.572;6.578;2023-12-20T14:14:20;11.40;72.00
31677;DHT22;18385;51.572;6.578;2023-12-20T14:16:46;11.50;72.00
31677;DHT22;18385;51.572;6.578;2023-12-20T14:19:12;11.50;71.90
31677;DHT22;18385;51.572;6.578;2023-12-20T14:21:38;11.50;71.80
31677;DHT22;18385;51.572;6.578;2023-12-20T14:24:03;11.50;71.80
31677;DHT22;18385;51.572;6.578;2023-12-20T14:26:30;11.60;72.00
31677;DHT22;18385;51.572;6.578;2023-12-20T14:28:56;11.60;71.80
31677;DHT22;18385;51.572;6.578;2023-12-20T14:31:23;11.60;71.90
31677;DHT22;18385;51.572;6.578;2023-12-20T14:33:50;11.60;71.80
31677;DHT22;18385;51.572;6.578;2023-12-20T14:36:17;11.60;71.70
31677;DHT22;18385;51.572;6.578;2023-12-20T14:38:44;11.50;71.70
31677;DHT22;18385;51.572;6.578;2023-12-20T14:41:09;11.50;71.90
31677;DHT22;18385;51.572;6.578;2023-12-20T14:43:35;11.60;72.10
31677;DHT22;18385;51.572;6.578;2023-12-20T14:46:01;11.60;72.00
31677;DHT22;18385;51.572;6.578;2023-12-20T14:48:27;11.60;72.00
31677;DHT22;18385;51.572;6.578;2023-12-20T14:50:53;11.70;71.90
31677;DHT22;18385;51.572;6.578;2023-12-20T14:53:19;11.60;71.80
31677;DHT22;18385;51.572;6.578;2023-12-20T14:55:45;11.70;72.00
31677;DHT22;18385;51.572;6.578;2023-12-20T14:58:12;11.70;72.00
31677;DHT22;18385;51.572;6.578;2023-12-20T15:00:38;11.80;72.00
31677;DHT22;18385;51.572;6.578;2023-12-20T15:03:04;11.70;71.80
31677;DHT22;18385;51.572;6.578;2023-12-20T15:05:31;11.80;71.90
31677;DHT22;18385;51.572;6.578;2023-12-20T15:07:57;11.80;71.90
31677;DHT22;18385;51.572;6.578;2023-12-20T15:10:22;11.80;71.80
31677;DHT22;18385;51.572;6.578;2023-12-20T15:12:48;11.80;71.70
31677;DHT22;18385;51.572;6.578;2023-12-20T15:15:14;11.80;71.80
31677;DHT22;18385;51.572;6.578;2023-12-20T15:17:40;11.80;71.70
31677;DHT22;18385;51.572;6.578;2023-12-20T15:20:06;11.80;71.70
31677;DHT22;18385;51.572;6.578;2023-12-20T15:22:32;11.80;71.70
31677;DHT22;18385;51.572;6.578;2023-12-20T15:25:00;11.80;71.60
31677;DHT22;18385;51.572;6.578;2023-12-20T15:27:27;11.70;71.70
31677;DHT22;18385;51.572;6.578;2023-12-20T15:29:52;11.70;71.70